Irving North's Hourly Summary for Saturday, May 12, 2018
Hour Temp
(f)
RH
(%)
Solar Rad.
(MJ/m2)
Rainfall
(in)
Wind
(mph)
5/12/2018 12:00 AM 77 55 0 0 9.38
5/12/2018 1:00 AM 75 61 0 0 9.4
5/12/2018 2:00 AM 74 67 0 0 8.43
5/12/2018 3:00 AM 73 73 0 0 8.3
5/12/2018 4:00 AM 73 76 0 0 9.62
5/12/2018 5:00 AM 73 77 0 0 6.75
5/12/2018 6:00 AM 73 77 0.02 0 7.19
5/12/2018 7:00 AM 73 80 0.21 0 7.7
5/12/2018 8:00 AM 74 74 0.53 0 7.84
5/12/2018 9:00 AM 77 63 1.5 0 9.79
5/12/2018 10:00 AM 80 53 2.64 0 10.54
5/12/2018 11:00 AM 83 46 3.32 0 10.72
5/12/2018 12:00 PM 84 44 3.11 0 9.55
5/12/2018 1:00 PM 86 39 3.5 0 9.18
5/12/2018 2:00 PM 87 36 3.07 0 9.11
5/12/2018 3:00 PM 87 36 2.45 0 9.1
5/12/2018 4:00 PM 88 37 2.4 0 9.53
5/12/2018 5:00 PM 88 37 1.65 0 9.21
5/12/2018 6:00 PM 87 39 0.57 0 8.65
5/12/2018 7:00 PM 86 41 0.32 0 8.27
5/12/2018 8:00 PM 84 43 0.01 0 5.87
5/12/2018 9:00 PM 82 48 0 0 5.05
5/12/2018 10:00 PM 81 52 0 0 5.25
5/12/2018 11:00 PM 80 56 0 0 6.44
Data Summary 80 54 25.30 0.00 8.37